sensor_id;sensor_type;location;lat;lon;timestamp;P1;durP1;ratioP1;P2;durP2;ratioP2
16735;SDS011;17990;49.548;9.730;2022-11-15T00:02:23;10.43;;;5.33;;
16735;SDS011;17990;49.548;9.730;2022-11-15T00:04:49;9.30;;;5.40;;
16735;SDS011;17990;49.548;9.730;2022-11-15T00:07:16;7.90;;;4.63;;
16735;SDS011;17990;49.548;9.730;2022-11-15T00:09:43;11.60;;;5.10;;
16735;SDS011;17990;49.548;9.730;2022-11-15T00:12:10;8.70;;;4.83;;
16735;SDS011;17990;49.548;9.730;2022-11-15T00:14:38;9.57;;;5.90;;
16735;SDS011;17990;49.548;9.730;2022-11-15T00:17:05;8.33;;;5.43;;
16735;SDS011;17990;49.548;9.730;2022-11-15T00:19:32;7.43;;;4.60;;
16735;SDS011;17990;49.548;9.730;2022-11-15T00:21:59;7.97;;;4.83;;
16735;SDS011;17990;49.548;9.730;2022-11-15T00:24:26;10.60;;;4.93;;
16735;SDS011;17990;49.548;9.730;2022-11-15T00:26:53;9.00;;;4.73;;
16735;SDS011;17990;49.548;9.730;2022-11-15T00:29:20;8.23;;;4.80;;
16735;SDS011;17990;49.548;9.730;2022-11-15T00:31:49;8.53;;;4.93;;
16735;SDS011;17990;49.548;9.730;2022-11-15T00:34:15;8.30;;;4.60;;
16735;SDS011;17990;49.548;9.730;2022-11-15T00:36:42;8.90;;;5.50;;
16735;SDS011;17990;49.548;9.730;2022-11-15T00:39:09;9.33;;;5.37;;
16735;SDS011;17990;49.548;9.730;2022-11-15T00:41:36;8.83;;;5.03;;
16735;SDS011;17990;49.548;9.730;2022-11-15T00:44:03;9.27;;;5.27;;
16735;SDS011;17990;49.548;9.730;2022-11-15T00:46:30;10.63;;;5.57;;
16735;SDS011;17990;49.548;9.730;2022-11-15T00:48:58;9.57;;;5.73;;
16735;SDS011;17990;49.548;9.730;2022-11-15T00:51:25;8.20;;;5.37;;
16735;SDS011;17990;49.548;9.730;2022-11-15T00:53:52;9.97;;;5.30;;
16735;SDS011;17990;49.548;9.730;2022-11-15T00:56:19;11.30;;;5.80;;
16735;SDS011;17990;49.548;9.730;2022-11-15T00:58:46;8.47;;;5.70;;
16735;SDS011;17990;49.548;9.730;2022-11-15T01:01:13;10.20;;;6.17;;
16735;SDS011;17990;49.548;9.730;2022-11-15T01:03:40;13.53;;;6.90;;
16735;SDS011;17990;49.548;9.730;2022-11-15T01:06:09;11.00;;;6.53;;
16735;SDS011;17990;49.548;9.730;2022-11-15T01:08:36;12.87;;;6.47;;
16735;SDS011;17990;49.548;9.730;2022-11-15T01:11:05;10.10;;;6.97;;
16735;SDS011;17990;49.548;9.730;2022-11-15T01:13:35;10.80;;;6.23;;
16735;SDS011;17990;49.548;9.730;2022-11-15T01:16:07;12.43;;;6.43;;
16735;SDS011;17990;49.548;9.730;2022-11-15T01:18:36;11.50;;;6.53;;
16735;SDS011;17990;49.548;9.730;2022-11-15T01:21:09;13.10;;;7.07;;
16735;SDS011;17990;49.548;9.730;2022-11-15T01:23:38;14.57;;;7.83;;
16735;SDS011;17990;49.548;9.730;2022-11-15T01:26:05;13.43;;;7.77;;
16735;SDS011;17990;49.548;9.730;2022-11-15T01:28:36;15.07;;;6.87;;
16735;SDS011;17990;49.548;9.730;2022-11-15T01:31:05;15.10;;;7.13;;
16735;SDS011;17990;49.548;9.730;2022-11-15T01:33:41;11.83;;;7.13;;
16735;SDS011;17990;49.548;9.730;2022-11-15T01:36:10;11.13;;;6.53;;
16735;SDS011;17990;49.548;9.730;2022-11-15T01:38:39;12.97;;;5.77;;
16735;SDS011;17990;49.548;9.730;2022-11-15T01:41:06;10.40;;;6.10;;
16735;SDS011;17990;49.548;9.730;2022-11-15T01:43:40;12.07;;;6.00;;
16735;SDS011;17990;49.548;9.730;2022-11-15T01:46:11;10.60;;;6.77;;
16735;SDS011;17990;49.548;9.730;2022-11-15T01:48:54;13.33;;;8.30;;
16735;SDS011;17990;49.548;9.730;2022-11-15T01:51:25;10.90;;;7.17;;
16735;SDS011;17990;49.548;9.730;2022-11-15T01:53:58;12.00;;;6.40;;
16735;SDS011;17990;49.548;9.730;2022-11-15T01:56:28;11.50;;;6.27;;
16735;SDS011;17990;49.548;9.730;2022-11-15T01:58:59;10.87;;;7.03;;
16735;SDS011;17990;49.548;9.730;2022-11-15T02:01:30;7.47;;;5.53;;
16735;SDS011;17990;49.548;9.730;2022-11-15T02:03:59;9.47;;;5.40;;
16735;SDS011;17990;49.548;9.730;2022-11-15T02:06:32;7.07;;;4.80;;
16735;SDS011;17990;49.548;9.730;2022-11-15T02:09:00;7.67;;;5.47;;
16735;SDS011;17990;49.548;9.730;2022-11-15T02:11:28;9.90;;;6.00;;
16735;SDS011;17990;49.548;9.730;2022-11-15T02:13:55;15.03;;;6.90;;
16735;SDS011;17990;49.548;9.730;2022-11-15T02:16:26;12.27;;;5.90;;
16735;SDS011;17990;49.548;9.730;2022-11-15T02:19:02;12.03;;;6.43;;
16735;SDS011;17990;49.548;9.730;2022-11-15T02:21:44;11.67;;;7.30;;
16735;SDS011;17990;49.548;9.730;2022-11-15T02:24:23;8.33;;;6.10;;
16735;SDS011;17990;49.548;9.730;2022-11-15T02:27:23;10.57;;;6.40;;
16735;SDS011;17990;49.548;9.730;2022-11-15T02:30:37;9.93;;;5.50;;
16735;SDS011;17990;49.548;9.730;2022-11-15T02:33:11;10.13;;;6.03;;
16735;SDS011;17990;49.548;9.730;2022-11-15T02:35:52;11.00;;;6.33;;
16735;SDS011;17990;49.548;9.730;2022-11-15T02:38:29;9.30;;;5.97;;
16735;SDS011;17990;49.548;9.730;2022-11-15T02:41:05;11.57;;;6.40;;
16735;SDS011;17990;49.548;9.730;2022-11-15T02:43:37;11.57;;;6.13;;
16735;SDS011;17990;49.548;9.730;2022-11-15T02:46:24;9.80;;;6.10;;
16735;SDS011;17990;49.548;9.730;2022-11-15T02:49:15;10.27;;;6.13;;
16735;SDS011;17990;49.548;9.730;2022-11-15T02:51:43;9.60;;;6.27;;
16735;SDS011;17990;49.548;9.730;2022-11-15T02:54:14;10.43;;;6.27;;
16735;SDS011;17990;49.548;9.730;2022-11-15T02:56:45;10.27;;;6.03;;
16735;SDS011;17990;49.548;9.730;2022-11-15T02:59:15;10.63;;;6.33;;
16735;SDS011;17990;49.548;9.730;2022-11-15T03:02:10;9.33;;;5.73;;
16735;SDS011;17990;49.548;9.730;2022-11-15T03:04:54;10.40;;;6.40;;
16735;SDS011;17990;49.548;9.730;2022-11-15T03:07:25;12.93;;;6.73;;
16735;SDS011;17990;49.548;9.730;2022-11-15T03:09:57;10.30;;;6.30;;
16735;SDS011;17990;49.548;9.730;2022-11-15T03:12:34;8.30;;;5.67;;
16735;SDS011;17990;49.548;9.730;2022-11-15T03:15:08;8.90;;;5.80;;
16735;SDS011;17990;49.548;9.730;2022-11-15T03:17:44;10.53;;;6.43;;
16735;SDS011;17990;49.548;9.730;2022-11-15T03:20:19;9.87;;;5.63;;
16735;SDS011;17990;49.548;9.730;2022-11-15T03:22:46;9.77;;;6.10;;
16735;SDS011;17990;49.548;9.730;2022-11-15T03:25:17;9.07;;;6.10;;
16735;SDS011;17990;49.548;9.730;2022-11-15T03:27:48;9.97;;;5.47;;
16735;SDS011;17990;49.548;9.730;2022-11-15T03:30:18;10.63;;;6.00;;
16735;SDS011;17990;49.548;9.730;2022-11-15T03:32:47;10.27;;;6.17;;
16735;SDS011;17990;49.548;9.730;2022-11-15T03:35:20;9.40;;;5.83;;
16735;SDS011;17990;49.548;9.730;2022-11-15T03:37:49;10.00;;;6.10;;
16735;SDS011;17990;49.548;9.730;2022-11-15T03:40:24;8.10;;;5.43;;
16735;SDS011;17990;49.548;9.730;2022-11-15T03:42:58;10.90;;;6.40;;
16735;SDS011;17990;49.548;9.730;2022-11-15T03:45:34;6.97;;;4.77;;
16735;SDS011;17990;49.548;9.730;2022-11-15T03:48:09;7.43;;;4.50;;
16735;SDS011;17990;49.548;9.730;2022-11-15T03:50:39;7.40;;;4.40;;
16735;SDS011;17990;49.548;9.730;2022-11-15T03:53:07;8.17;;;5.43;;
16735;SDS011;17990;49.548;9.730;2022-11-15T03:55:34;10.50;;;5.87;;
16735;SDS011;17990;49.548;9.730;2022-11-15T03:58:01;11.40;;;6.03;;
16735;SDS011;17990;49.548;9.730;2022-11-15T04:00:28;11.13;;;5.60;;
16735;SDS011;17990;49.548;9.730;2022-11-15T04:02:55;8.37;;;5.30;;
16735;SDS011;17990;49.548;9.730;2022-11-15T04:05:24;10.17;;;6.17;;
16735;SDS011;17990;49.548;9.730;2022-11-15T04:07:51;10.97;;;6.27;;
16735;SDS011;17990;49.548;9.730;2022-11-15T04:10:18;10.47;;;5.40;;
16735;SDS011;17990;49.548;9.730;2022-11-15T04:12:45;9.87;;;5.63;;
16735;SDS011;17990;49.548;9.730;2022-11-15T04:15:13;8.80;;;5.03;;
16735;SDS011;17990;49.548;9.730;2022-11-15T04:17:43;8.77;;;5.10;;
16735;SDS011;17990;49.548;9.730;2022-11-15T04:20:12;14.57;;;5.33;;
16735;SDS011;17990;49.548;9.730;2022-11-15T04:23:01;6.90;;;4.93;;
16735;SDS011;17990;49.548;9.730;2022-11-15T04:25:49;7.17;;;4.97;;
16735;SDS011;17990;49.548;9.730;2022-11-15T04:28:18;10.93;;;5.57;;
16735;SDS011;17990;49.548;9.730;2022-11-15T04:30:45;8.67;;;5.53;;
16735;SDS011;17990;49.548;9.730;2022-11-15T04:33:12;13.10;;;6.87;;
16735;SDS011;17990;49.548;9.730;2022-11-15T04:35:40;9.40;;;5.57;;
16735;SDS011;17990;49.548;9.730;2022-11-15T04:38:09;8.57;;;5.80;;
16735;SDS011;17990;49.548;9.730;2022-11-15T04:40:36;11.87;;;6.67;;
16735;SDS011;17990;49.548;9.730;2022-11-15T04:43:04;8.90;;;5.90;;
16735;SDS011;17990;49.548;9.730;2022-11-15T04:45:31;12.10;;;6.07;;
16735;SDS011;17990;49.548;9.730;2022-11-15T04:47:58;11.53;;;5.50;;
16735;SDS011;17990;49.548;9.730;2022-11-15T04:50:24;9.77;;;5.30;;
16735;SDS011;17990;49.548;9.730;2022-11-15T04:52:52;9.50;;;5.53;;
16735;SDS011;17990;49.548;9.730;2022-11-15T04:55:21;10.10;;;5.77;;
16735;SDS011;17990;49.548;9.730;2022-11-15T04:57:56;8.83;;;6.13;;
16735;SDS011;17990;49.548;9.730;2022-11-15T05:00:24;38.93;;;17.87;;
16735;SDS011;17990;49.548;9.730;2022-11-15T05:02:52;14.20;;;7.33;;
16735;SDS011;17990;49.548;9.730;2022-11-15T05:05:37;12.57;;;6.80;;
16735;SDS011;17990;49.548;9.730;2022-11-15T05:08:04;15.87;;;6.60;;
16735;SDS011;17990;49.548;9.730;2022-11-15T05:10:33;11.60;;;6.17;;
16735;SDS011;17990;49.548;9.730;2022-11-15T05:13:00;9.77;;;6.00;;
16735;SDS011;17990;49.548;9.730;2022-11-15T05:15:26;23.97;;;9.60;;
16735;SDS011;17990;49.548;9.730;2022-11-15T05:17:56;17.60;;;8.17;;
16735;SDS011;17990;49.548;9.730;2022-11-15T05:20:24;10.90;;;6.77;;
16735;SDS011;17990;49.548;9.730;2022-11-15T05:22:52;11.70;;;6.20;;
16735;SDS011;17990;49.548;9.730;2022-11-15T05:25:20;10.10;;;6.40;;
16735;SDS011;17990;49.548;9.730;2022-11-15T05:27:48;12.87;;;7.27;;
16735;SDS011;17990;49.548;9.730;2022-11-15T05:30:15;19.20;;;11.37;;
16735;SDS011;17990;49.548;9.730;2022-11-15T05:32:43;16.30;;;8.60;;
16735;SDS011;17990;49.548;9.730;2022-11-15T05:35:12;11.23;;;5.83;;
16735;SDS011;17990;49.548;9.730;2022-11-15T05:37:45;9.90;;;6.80;;
16735;SDS011;17990;49.548;9.730;2022-11-15T05:40:13;11.00;;;6.30;;
16735;SDS011;17990;49.548;9.730;2022-11-15T05:42:40;13.37;;;8.60;;
16735;SDS011;17990;49.548;9.730;2022-11-15T05:45:08;14.20;;;8.43;;
16735;SDS011;17990;49.548;9.730;2022-11-15T05:47:36;19.50;;;12.63;;
16735;SDS011;17990;49.548;9.730;2022-11-15T05:50:05;20.57;;;11.70;;
16735;SDS011;17990;49.548;9.730;2022-11-15T05:52:34;19.93;;;13.50;;
16735;SDS011;17990;49.548;9.730;2022-11-15T05:55:03;23.77;;;13.53;;
16735;SDS011;17990;49.548;9.730;2022-11-15T05:57:33;16.53;;;10.53;;
16735;SDS011;17990;49.548;9.730;2022-11-15T06:00:00;16.37;;;10.27;;
16735;SDS011;17990;49.548;9.730;2022-11-15T06:02:30;16.03;;;9.00;;
16735;SDS011;17990;49.548;9.730;2022-11-15T06:04:57;10.13;;;6.60;;
16735;SDS011;17990;49.548;9.730;2022-11-15T06:07:24;8.57;;;5.40;;
16735;SDS011;17990;49.548;9.730;2022-11-15T06:09:51;8.23;;;5.30;;
16735;SDS011;17990;49.548;9.730;2022-11-15T06:12:18;10.60;;;5.43;;
16735;SDS011;17990;49.548;9.730;2022-11-15T06:14:45;7.63;;;5.03;;
16735;SDS011;17990;49.548;9.730;2022-11-15T06:17:11;7.57;;;4.77;;
16735;SDS011;17990;49.548;9.730;2022-11-15T06:19:40;26.97;;;13.73;;
16735;SDS011;17990;49.548;9.730;2022-11-15T06:22:06;50.60;;;27.77;;
16735;SDS011;17990;49.548;9.730;2022-11-15T06:24:34;20.37;;;10.40;;
16735;SDS011;17990;49.548;9.730;2022-11-15T06:27:01;9.10;;;5.53;;
16735;SDS011;17990;49.548;9.730;2022-11-15T06:29:28;12.80;;;7.20;;
16735;SDS011;17990;49.548;9.730;2022-11-15T06:31:55;8.23;;;5.23;;
16735;SDS011;17990;49.548;9.730;2022-11-15T06:34:22;10.80;;;5.43;;
16735;SDS011;17990;49.548;9.730;2022-11-15T06:36:50;9.47;;;5.53;;
16735;SDS011;17990;49.548;9.730;2022-11-15T06:39:17;12.50;;;5.67;;
16735;SDS011;17990;49.548;9.730;2022-11-15T06:41:44;7.73;;;4.40;;
16735;SDS011;17990;49.548;9.730;2022-11-15T06:44:11;12.13;;;5.97;;
16735;SDS011;17990;49.548;9.730;2022-11-15T06:46:37;11.60;;;7.33;;
16735;SDS011;17990;49.548;9.730;2022-11-15T06:49:04;15.53;;;8.27;;
16735;SDS011;17990;49.548;9.730;2022-11-15T06:51:31;8.43;;;5.83;;
16735;SDS011;17990;49.548;9.730;2022-11-15T06:54:00;10.50;;;5.17;;
16735;SDS011;17990;49.548;9.730;2022-11-15T06:56:26;10.63;;;5.03;;
16735;SDS011;17990;49.548;9.730;2022-11-15T06:58:53;8.57;;;5.17;;
16735;SDS011;17990;49.548;9.730;2022-11-15T07:01:21;9.83;;;5.23;;
16735;SDS011;17990;49.548;9.730;2022-11-15T07:03:48;9.63;;;4.83;;
16735;SDS011;17990;49.548;9.730;2022-11-15T07:06:15;11.93;;;5.03;;
16735;SDS011;17990;49.548;9.730;2022-11-15T07:08:42;11.30;;;4.87;;
16735;SDS011;17990;49.548;9.730;2022-11-15T07:11:10;10.43;;;4.53;;
16735;SDS011;17990;49.548;9.730;2022-11-15T07:13:37;9.20;;;4.60;;
16735;SDS011;17990;49.548;9.730;2022-11-15T07:16:05;9.13;;;4.43;;
16735;SDS011;17990;49.548;9.730;2022-11-15T07:18:34;11.07;;;4.60;;
16735;SDS011;17990;49.548;9.730;2022-11-15T07:21:02;8.10;;;4.37;;
16735;SDS011;17990;49.548;9.730;2022-11-15T07:23:30;12.63;;;5.03;;
16735;SDS011;17990;49.548;9.730;2022-11-15T07:25:57;11.50;;;5.77;;
16735;SDS011;17990;49.548;9.730;2022-11-15T07:28:26;9.20;;;4.50;;
16735;SDS011;17990;49.548;9.730;2022-11-15T07:30:53;9.17;;;5.07;;
16735;SDS011;17990;49.548;9.730;2022-11-15T07:33:20;7.63;;;4.53;;
16735;SDS011;17990;49.548;9.730;2022-11-15T07:35:48;10.73;;;6.10;;
16735;SDS011;17990;49.548;9.730;2022-11-15T07:38:15;10.93;;;6.00;;
16735;SDS011;17990;49.548;9.730;2022-11-15T07:40:44;11.73;;;6.30;;
16735;SDS011;17990;49.548;9.730;2022-11-15T07:43:11;12.43;;;6.77;;
16735;SDS011;17990;49.548;9.730;2022-11-15T07:45:43;11.33;;;5.50;;
16735;SDS011;17990;49.548;9.730;2022-11-15T07:48:11;10.17;;;5.90;;
16735;SDS011;17990;49.548;9.730;2022-11-15T07:50:40;13.27;;;6.13;;
16735;SDS011;17990;49.548;9.730;2022-11-15T07:53:07;8.23;;;5.67;;
16735;SDS011;17990;49.548;9.730;2022-11-15T07:55:35;10.13;;;5.50;;
16735;SDS011;17990;49.548;9.730;2022-11-15T07:58:03;9.10;;;5.50;;
16735;SDS011;17990;49.548;9.730;2022-11-15T08:00:32;12.63;;;5.60;;
16735;SDS011;17990;49.548;9.730;2022-11-15T08:03:04;9.87;;;5.63;;
16735;SDS011;17990;49.548;9.730;2022-11-15T08:05:35;7.07;;;5.33;;
16735;SDS011;17990;49.548;9.730;2022-11-15T08:08:04;11.33;;;5.60;;
16735;SDS011;17990;49.548;9.730;2022-11-15T08:10:31;10.93;;;5.30;;
16735;SDS011;17990;49.548;9.730;2022-11-15T08:12:59;9.20;;;5.13;;
16735;SDS011;17990;49.548;9.730;2022-11-15T08:15:28;12.70;;;4.90;;
16735;SDS011;17990;49.548;9.730;2022-11-15T08:17:56;8.30;;;4.27;;
16735;SDS011;17990;49.548;9.730;2022-11-15T08:20:25;6.03;;;4.57;;
16735;SDS011;17990;49.548;9.730;2022-11-15T08:22:55;7.23;;;4.67;;
16735;SDS011;17990;49.548;9.730;2022-11-15T08:25:22;14.37;;;4.70;;
16735;SDS011;17990;49.548;9.730;2022-11-15T08:27:51;6.47;;;4.20;;
16735;SDS011;17990;49.548;9.730;2022-11-15T08:30:19;9.60;;;4.47;;
16735;SDS011;17990;49.548;9.730;2022-11-15T08:32:46;5.80;;;4.00;;
16735;SDS011;17990;49.548;9.730;2022-11-15T08:35:13;6.73;;;4.07;;
16735;SDS011;17990;49.548;9.730;2022-11-15T08:37:42;5.30;;;3.23;;
16735;SDS011;17990;49.548;9.730;2022-11-15T08:40:09;5.70;;;3.40;;
16735;SDS011;17990;49.548;9.730;2022-11-15T08:42:36;4.87;;;3.73;;
16735;SDS011;17990;49.548;9.730;2022-11-15T08:45:04;7.57;;;4.47;;
16735;SDS011;17990;49.548;9.730;2022-11-15T08:47:32;6.80;;;3.90;;
16735;SDS011;17990;49.548;9.730;2022-11-15T08:49:58;8.23;;;5.60;;
16735;SDS011;17990;49.548;9.730;2022-11-15T08:52:25;5.20;;;3.37;;
16735;SDS011;17990;49.548;9.730;2022-11-15T08:54:54;5.77;;;3.67;;
16735;SDS011;17990;49.548;9.730;2022-11-15T08:57:21;7.57;;;4.97;;
16735;SDS011;17990;49.548;9.730;2022-11-15T08:59:48;12.97;;;5.10;;
16735;SDS011;17990;49.548;9.730;2022-11-15T09:02:15;6.40;;;4.50;;
16735;SDS011;17990;49.548;9.730;2022-11-15T09:04:42;7.93;;;4.20;;
16735;SDS011;17990;49.548;9.730;2022-11-15T09:07:10;12.50;;;4.80;;
16735;SDS011;17990;49.548;9.730;2022-11-15T09:09:38;8.90;;;4.60;;
16735;SDS011;17990;49.548;9.730;2022-11-15T09:12:06;6.93;;;4.10;;
16735;SDS011;17990;49.548;9.730;2022-11-15T09:14:34;5.90;;;3.30;;
16735;SDS011;17990;49.548;9.730;2022-11-15T09:17:01;9.07;;;5.77;;
16735;SDS011;17990;49.548;9.730;2022-11-15T09:19:28;9.40;;;4.03;;
16735;SDS011;17990;49.548;9.730;2022-11-15T09:21:55;3.57;;;2.83;;
16735;SDS011;17990;49.548;9.730;2022-11-15T09:24:22;6.23;;;3.10;;
16735;SDS011;17990;49.548;9.730;2022-11-15T09:26:49;9.10;;;5.20;;
16735;SDS011;17990;49.548;9.730;2022-11-15T09:29:18;9.87;;;6.27;;
16735;SDS011;17990;49.548;9.730;2022-11-15T09:31:45;7.57;;;5.47;;
16735;SDS011;17990;49.548;9.730;2022-11-15T09:34:12;6.87;;;4.73;;
16735;SDS011;17990;49.548;9.730;2022-11-15T09:36:39;6.60;;;3.60;;
16735;SDS011;17990;49.548;9.730;2022-11-15T09:39:06;4.97;;;2.80;;
16735;SDS011;17990;49.548;9.730;2022-11-15T09:44:29;6.07;;;2.70;;
16735;SDS011;17990;49.548;9.730;2022-11-15T09:47:28;4.63;;;2.87;;
16735;SDS011;17990;49.548;9.730;2022-11-15T09:50:20;3.77;;;2.70;;
16735;SDS011;17990;49.548;9.730;2022-11-15T09:53:00;4.20;;;2.97;;
16735;SDS011;17990;49.548;9.730;2022-11-15T09:55:30;4.80;;;2.90;;
16735;SDS011;17990;49.548;9.730;2022-11-15T09:58:07;6.13;;;2.93;;
16735;SDS011;17990;49.548;9.730;2022-11-15T10:00:50;4.60;;;2.87;;
16735;SDS011;17990;49.548;9.730;2022-11-15T10:03:21;11.60;;;3.13;;
16735;SDS011;17990;49.548;9.730;2022-11-15T10:05:54;8.77;;;3.03;;
16735;SDS011;17990;49.548;9.730;2022-11-15T10:11:19;6.37;;;3.00;;
16735;SDS011;17990;49.548;9.730;2022-11-15T10:13:51;10.30;;;3.70;;
16735;SDS011;17990;49.548;9.730;2022-11-15T10:19:23;8.10;;;3.27;;
16735;SDS011;17990;49.548;9.730;2022-11-15T10:21:59;6.97;;;3.30;;
16735;SDS011;17990;49.548;9.730;2022-11-15T10:24:42;4.93;;;3.03;;
16735;SDS011;17990;49.548;9.730;2022-11-15T10:27:12;5.43;;;2.93;;
16735;SDS011;17990;49.548;9.730;2022-11-15T10:29:43;5.73;;;3.07;;
16735;SDS011;17990;49.548;9.730;2022-11-15T10:32:16;6.73;;;3.30;;
16735;SDS011;17990;49.548;9.730;2022-11-15T10:34:46;10.63;;;3.90;;
16735;SDS011;17990;49.548;9.730;2022-11-15T10:37:14;6.53;;;3.33;;
16735;SDS011;17990;49.548;9.730;2022-11-15T10:40:04;5.57;;;3.07;;
16735;SDS011;17990;49.548;9.730;2022-11-15T10:42:41;4.93;;;3.50;;
16735;SDS011;17990;49.548;9.730;2022-11-15T10:45:14;7.27;;;3.27;;
16735;SDS011;17990;49.548;9.730;2022-11-15T10:47:52;7.07;;;3.17;;
16735;SDS011;17990;49.548;9.730;2022-11-15T10:50:29;8.53;;;2.70;;
16735;SDS011;17990;49.548;9.730;2022-11-15T10:52:58;4.13;;;3.00;;
16735;SDS011;17990;49.548;9.730;2022-11-15T10:55:28;5.87;;;2.93;;
16735;SDS011;17990;49.548;9.730;2022-11-15T10:58:00;6.23;;;3.10;;
16735;SDS011;17990;49.548;9.730;2022-11-15T11:00:32;8.10;;;2.73;;
16735;SDS011;17990;49.548;9.730;2022-11-15T11:03:03;5.43;;;3.10;;
16735;SDS011;17990;49.548;9.730;2022-11-15T11:05:32;6.10;;;2.70;;
16735;SDS011;17990;49.548;9.730;2022-11-15T11:08:03;6.40;;;3.00;;
16735;SDS011;17990;49.548;9.730;2022-11-15T11:10:51;6.40;;;3.20;;
16735;SDS011;17990;49.548;9.730;2022-11-15T11:13:22;5.67;;;2.87;;
16735;SDS011;17990;49.548;9.730;2022-11-15T11:15:52;7.77;;;2.70;;
16735;SDS011;17990;49.548;9.730;2022-11-15T11:18:28;7.07;;;3.00;;
16735;SDS011;17990;49.548;9.730;2022-11-15T11:21:02;8.13;;;2.87;;
16735;SDS011;17990;49.548;9.730;2022-11-15T11:23:41;6.17;;;3.10;;
16735;SDS011;17990;49.548;9.730;2022-11-15T11:26:23;5.80;;;3.13;;
16735;SDS011;17990;49.548;9.730;2022-11-15T11:29:07;7.77;;;3.17;;
16735;SDS011;17990;49.548;9.730;2022-11-15T11:31:55;7.03;;;3.00;;
16735;SDS011;17990;49.548;9.730;2022-11-15T11:34:36;6.37;;;3.40;;
16735;SDS011;17990;49.548;9.730;2022-11-15T11:37:17;6.63;;;3.23;;
16735;SDS011;17990;49.548;9.730;2022-11-15T11:39:53;7.33;;;3.27;;
16735;SDS011;17990;49.548;9.730;2022-11-15T11:42:37;7.17;;;3.00;;
16735;SDS011;17990;49.548;9.730;2022-11-15T11:45:15;7.70;;;2.50;;
16735;SDS011;17990;49.548;9.730;2022-11-15T11:47:48;5.33;;;2.93;;
16735;SDS011;17990;49.548;9.730;2022-11-15T11:50:26;6.13;;;3.30;;
16735;SDS011;17990;49.548;9.730;2022-11-15T11:52:56;6.03;;;3.03;;
16735;SDS011;17990;49.548;9.730;2022-11-15T11:55:28;4.77;;;3.00;;
16735;SDS011;17990;49.548;9.730;2022-11-15T11:58:03;9.53;;;3.43;;
16735;SDS011;17990;49.548;9.730;2022-11-15T12:00:39;5.80;;;3.03;;
16735;SDS011;17990;49.548;9.730;2022-11-15T12:03:11;9.37;;;3.43;;
16735;SDS011;17990;49.548;9.730;2022-11-15T12:05:46;7.17;;;5.10;;
16735;SDS011;17990;49.548;9.730;2022-11-15T12:08:24;6.30;;;3.57;;
16735;SDS011;17990;49.548;9.730;2022-11-15T12:11:00;10.23;;;3.10;;
16735;SDS011;17990;49.548;9.730;2022-11-15T12:13:34;7.03;;;3.23;;
16735;SDS011;17990;49.548;9.730;2022-11-15T12:16:04;9.23;;;3.10;;
16735;SDS011;17990;49.548;9.730;2022-11-15T12:18:38;8.53;;;2.97;;
16735;SDS011;17990;49.548;9.730;2022-11-15T12:21:07;5.83;;;2.77;;
16735;SDS011;17990;49.548;9.730;2022-11-15T12:23:41;4.30;;;2.80;;
16735;SDS011;17990;49.548;9.730;2022-11-15T12:26:15;10.03;;;3.43;;
16735;SDS011;17990;49.548;9.730;2022-11-15T12:28:45;6.10;;;3.17;;
16735;SDS011;17990;49.548;9.730;2022-11-15T12:31:16;6.50;;;2.60;;
16735;SDS011;17990;49.548;9.730;2022-11-15T12:33:49;8.73;;;3.07;;
16735;SDS011;17990;49.548;9.730;2022-11-15T12:36:33;5.40;;;2.87;;
16735;SDS011;17990;49.548;9.730;2022-11-15T12:39:04;6.63;;;3.70;;
16735;SDS011;17990;49.548;9.730;2022-11-15T12:41:32;9.40;;;2.97;;
16735;SDS011;17990;49.548;9.730;2022-11-15T12:44:01;7.30;;;2.77;;
16735;SDS011;17990;49.548;9.730;2022-11-15T12:49:48;7.07;;;3.30;;
16735;SDS011;17990;49.548;9.730;2022-11-15T12:52:18;8.00;;;3.03;;
16735;SDS011;17990;49.548;9.730;2022-11-15T12:54:56;4.47;;;2.70;;
16735;SDS011;17990;49.548;9.730;2022-11-15T12:57:32;5.83;;;3.27;;
16735;SDS011;17990;49.548;9.730;2022-11-15T13:03:16;6.10;;;3.30;;
16735;SDS011;17990;49.548;9.730;2022-11-15T13:06:04;7.37;;;3.43;;
16735;SDS011;17990;49.548;9.730;2022-11-15T13:09:49;7.30;;;3.60;;
16735;SDS011;17990;49.548;9.730;2022-11-15T13:21:16;5.00;;;3.17;;
16735;SDS011;17990;49.548;9.730;2022-11-15T13:24:08;4.67;;;3.17;;
16735;SDS011;17990;49.548;9.730;2022-11-15T13:26:40;9.83;;;3.70;;
16735;SDS011;17990;49.548;9.730;2022-11-15T13:29:17;7.63;;;3.60;;
16735;SDS011;17990;49.548;9.730;2022-11-15T13:31:45;5.47;;;3.33;;
16735;SDS011;17990;49.548;9.730;2022-11-15T13:34:25;6.50;;;3.50;;
16735;SDS011;17990;49.548;9.730;2022-11-15T13:36:55;6.50;;;3.67;;
16735;SDS011;17990;49.548;9.730;2022-11-15T13:39:27;10.40;;;3.87;;
16735;SDS011;17990;49.548;9.730;2022-11-15T13:41:56;5.87;;;3.83;;
16735;SDS011;17990;49.548;9.730;2022-11-15T13:44:25;10.13;;;5.37;;
16735;SDS011;17990;49.548;9.730;2022-11-15T13:47:03;14.60;;;4.97;;
16735;SDS011;17990;49.548;9.730;2022-11-15T13:49:32;6.47;;;3.67;;
16735;SDS011;17990;49.548;9.730;2022-11-15T13:52:00;8.70;;;3.90;;
16735;SDS011;17990;49.548;9.730;2022-11-15T13:54:34;9.27;;;4.57;;
16735;SDS011;17990;49.548;9.730;2022-11-15T13:57:04;8.23;;;4.30;;
16735;SDS011;17990;49.548;9.730;2022-11-15T13:59:44;7.67;;;3.87;;
16735;SDS011;17990;49.548;9.730;2022-11-15T14:02:14;7.87;;;3.70;;
16735;SDS011;17990;49.548;9.730;2022-11-15T14:04:45;10.43;;;3.77;;
16735;SDS011;17990;49.548;9.730;2022-11-15T14:07:17;9.93;;;3.53;;
16735;SDS011;17990;49.548;9.730;2022-11-15T14:09:48;7.60;;;3.50;;
16735;SDS011;17990;49.548;9.730;2022-11-15T14:12:23;5.33;;;3.43;;
16735;SDS011;17990;49.548;9.730;2022-11-15T14:14:56;5.07;;;3.90;;
16735;SDS011;17990;49.548;9.730;2022-11-15T14:17:35;10.90;;;4.63;;
16735;SDS011;17990;49.548;9.730;2022-11-15T14:22:59;5.03;;;3.30;;
16735;SDS011;17990;49.548;9.730;2022-11-15T14:25:29;6.37;;;3.40;;
16735;SDS011;17990;49.548;9.730;2022-11-15T14:28:08;6.27;;;3.60;;
16735;SDS011;17990;49.548;9.730;2022-11-15T14:30:58;6.43;;;3.10;;
16735;SDS011;17990;49.548;9.730;2022-11-15T14:33:27;10.60;;;4.17;;
16735;SDS011;17990;49.548;9.730;2022-11-15T14:35:56;10.70;;;4.30;;
16735;SDS011;17990;49.548;9.730;2022-11-15T14:38:25;6.23;;;4.17;;
16735;SDS011;17990;49.548;9.730;2022-11-15T14:40:54;7.23;;;4.40;;
16735;SDS011;17990;49.548;9.730;2022-11-15T14:43:21;9.83;;;4.40;;
16735;SDS011;17990;49.548;9.730;2022-11-15T14:45:49;8.53;;;4.40;;
16735;SDS011;17990;49.548;9.730;2022-11-15T14:48:15;10.23;;;6.03;;
16735;SDS011;17990;49.548;9.730;2022-11-15T14:50:42;10.50;;;4.20;;
16735;SDS011;17990;49.548;9.730;2022-11-15T14:53:11;12.60;;;5.47;;
16735;SDS011;17990;49.548;9.730;2022-11-15T14:55:39;12.70;;;6.27;;
16735;SDS011;17990;49.548;9.730;2022-11-15T14:58:08;15.57;;;8.93;;
16735;SDS011;17990;49.548;9.730;2022-11-15T15:00:35;35.27;;;20.13;;
16735;SDS011;17990;49.548;9.730;2022-11-15T15:03:04;60.50;;;35.00;;
16735;SDS011;17990;49.548;9.730;2022-11-15T15:05:33;137.07;;;78.03;;
16735;SDS011;17990;49.548;9.730;2022-11-15T15:08:02;117.90;;;62.87;;
16735;SDS011;17990;49.548;9.730;2022-11-15T15:10:30;102.93;;;54.43;;
16735;SDS011;17990;49.548;9.730;2022-11-15T15:13:00;39.63;;;22.57;;
16735;SDS011;17990;49.548;9.730;2022-11-15T15:15:31;41.13;;;23.07;;
16735;SDS011;17990;49.548;9.730;2022-11-15T15:18:00;38.17;;;21.43;;
16735;SDS011;17990;49.548;9.730;2022-11-15T15:20:27;42.67;;;22.60;;
16735;SDS011;17990;49.548;9.730;2022-11-15T15:22:55;39.20;;;20.50;;
16735;SDS011;17990;49.548;9.730;2022-11-15T15:25:22;44.93;;;22.93;;
16735;SDS011;17990;49.548;9.730;2022-11-15T15:27:53;49.97;;;26.37;;
16735;SDS011;17990;49.548;9.730;2022-11-15T15:30:21;47.97;;;26.37;;
16735;SDS011;17990;49.548;9.730;2022-11-15T15:32:49;35.67;;;18.40;;